Airfield :
LOGIN :

Register | Disclaimer

   EN    FR    IT 

 










Legend :    VFR   Marginal VFR   IFR   Intensive IFR   Very Intensive IFR
Visi :
Ceiling :
>= 8 km
>= 3000ft
5 to 8 km
1000 to 3000 ft
1500m to 5 km
500 to 1000 ft
800 to 1500m
200 to 500 ft
< 800m
< 200 ft
Symbols :   Thunderstorms  Fog  Heavy snow  Heavy precipitations  Wind > 20 kt
SIGMETs :     Misc.  Thunderstorms  Icing  Turbulence  Mountain Waves  Volcanic Ashes






- Airport Elevation : 290 ft
- IATA code : OSI


LDOS - Osijek

CURRENT METAR :
  • 041530Z 04005KT CAVOK 30/14 Q1012

EXPIRED METARs :
  • 041500Z 06007KT CAVOK 30/14 Q1012
  • 041430Z 07006KT 040V100 CAVOK 30/13 Q1013
  • 041400Z 06006KT 030V100 CAVOK 30/15 Q1013
  • 041330Z 06007KT CAVOK 30/14 Q1013
  • 041300Z 08004KT 020V140 CAVOK 30/12 Q1013

TAF COR TAF LDOS
Valid from the 04 at 12:00 until the 05 at 12:00 UTC


041341Z 0412/0512 VRB02KT CAVOK TX31/0414Z TN17/0503Z
BECMG 0417/0419 11006KT
BECMG 0507/0509 32010KT
TEMPO 0509/0512 32030G55KT 4000 TSRA SCT025CB BKN030



MET'MAP, your aeronautical weather chart ! - Copyright ORBIFLY December 2007 - Disclaimer

ORBIFLY MET'MAP TEAM :

Programming & Development : Alexandra Zaïnal
Concept & original design : Baudouin d'Aumeries
Assistance for programming : Marc-Olivier Méhu
Technical & hardware support : Manuel Goepfert

Contact : metmap@orbifly.com




SOURCES & CREDITS :

   NOAA